Weather at Tenerife Sur Airport

Public forecast

Using degrees Celsius for public forecast. Weather courtesy of forecast.io.

Current aviation weather report (METAR) for Tenerife Sur Airport

2024/04/12 18:30 (retrieved 16 minutes ago)

GCTS 121830Z 08015KT CAVOK 28/10 Q1016 NOSIG

Aviation forecast (TAF) for Tenerife Sur Airport

2024/04/12 15:27 (retrieved 3 hours ago)

TAF GCTS 121400Z 1215/1315 08018KT 9000 NSC TX29/1314Z TN21/1306Z PROB30 TEMPO 1215/1217 22007KT BECMG 1219/1221 VRB05KT PROB40 TEMPO 1305/1308 04010KT BECMG 1309/1311 08010KT